createdAt,value
2023-02-03T00:01:25.957Z,101750.13
2023-02-03T00:03:52.374Z,101742.44
2023-02-03T00:06:18.919Z,101751.75
2023-02-03T00:08:45.479Z,101743.53
2023-02-03T00:11:12.265Z,101733.47
2023-02-03T00:13:38.717Z,101734.91
2023-02-03T00:16:06.669Z,101727.00
2023-02-03T00:18:33.784Z,101722.03
2023-02-03T00:21:00.200Z,101720.03
2023-02-03T00:23:30.028Z,101716.16
2023-02-03T00:25:56.448Z,101727.09
2023-02-03T00:28:22.887Z,101716.31
2023-02-03T00:30:49.670Z,101710.97
2023-02-03T00:33:16.087Z,101717.50
2023-02-03T00:35:42.495Z,101712.16
2023-02-03T00:38:08.919Z,101709.94
2023-02-03T00:40:35.387Z,101716.03
2023-02-03T00:43:01.864Z,101724.06
2023-02-03T00:45:28.266Z,101726.06
2023-02-03T00:47:54.652Z,101727.94
2023-02-03T00:50:21.063Z,101728.31
2023-02-03T00:52:47.539Z,101730.53
2023-02-03T00:55:13.932Z,101726.34
2023-02-03T00:57:40.371Z,101732.56
2023-02-03T01:00:07.803Z,101741.81
2023-02-03T01:02:34.338Z,101737.03
2023-02-03T01:05:00.790Z,101737.72
2023-02-03T01:07:27.279Z,101742.78
2023-02-03T01:09:53.785Z,101741.66
2023-02-03T01:12:20.178Z,101740.69
2023-02-03T01:14:46.611Z,101741.69
2023-02-03T01:17:13.077Z,101745.78
2023-02-03T01:19:39.490Z,101753.66
2023-02-03T01:22:06.067Z,101752.22
2023-02-03T01:24:32.448Z,101752.28
2023-02-03T01:26:58.846Z,101757.97
2023-02-03T01:29:25.315Z,101765.94
2023-02-03T01:31:51.832Z,101767.03
2023-02-03T01:34:18.501Z,101769.84
2023-02-03T01:36:46.820Z,101776.31
2023-02-03T01:39:14.194Z,101776.34
2023-02-03T01:41:41.057Z,101773.66
2023-02-03T01:44:38.874Z,101778.97
2023-02-03T01:47:11.973Z,101790.41
2023-02-03T01:49:42.237Z,101778.38
2023-02-03T01:52:08.731Z,101782.03
2023-02-03T01:54:41.143Z,101783.25
2023-02-03T01:57:19.439Z,101792.97
2023-02-03T01:59:47.901Z,101793.25
2023-02-03T02:02:14.421Z,101789.00
2023-02-03T02:04:57.393Z,101783.56
2023-02-03T02:07:24.581Z,101788.47
2023-02-03T02:09:51.069Z,101784.34
2023-02-03T02:12:17.495Z,101786.72
2023-02-03T02:14:45.666Z,101783.84
2023-02-03T02:17:21.966Z,101764.94
2023-02-03T02:20:09.029Z,101762.25
2023-02-03T02:22:55.285Z,101775.88
2023-02-03T02:25:38.482Z,101783.91
2023-02-03T02:28:16.976Z,101776.66
2023-02-03T02:31:11.765Z,101767.19
2023-02-03T02:33:49.607Z,101767.44
2023-02-03T02:36:15.945Z,101761.75
2023-02-03T02:38:59.512Z,101771.81
2023-02-03T02:41:35.123Z,101782.97
2023-02-03T02:44:08.808Z,101789.59
2023-02-03T02:46:43.609Z,101791.75
2023-02-03T02:49:35.325Z,101790.34
2023-02-03T02:52:05.396Z,101779.75
2023-02-03T02:54:37.535Z,101775.59
2023-02-03T02:57:05.839Z,101779.28
2023-02-03T02:59:32.361Z,101776.13
2023-02-03T03:01:58.801Z,101772.59
2023-02-03T03:04:28.280Z,101774.41
2023-02-03T03:07:12.197Z,101788.34
2023-02-03T03:09:50.606Z,101788.84
2023-02-03T03:12:22.606Z,101790.28
2023-02-03T03:14:57.950Z,101793.75
2023-02-03T03:17:28.573Z,101803.31
2023-02-03T03:19:57.800Z,101800.69
2023-02-03T03:22:30.241Z,101799.06
2023-02-03T03:25:26.057Z,101801.03
2023-02-03T03:27:58.999Z,101801.31
2023-02-03T03:30:37.654Z,101805.50
2023-02-03T03:33:05.636Z,101805.69
2023-02-03T03:35:42.361Z,101807.16
2023-02-03T03:38:21.784Z,101808.38
2023-02-03T03:41:09.876Z,101807.63
2023-02-03T03:43:40.092Z,101798.50
2023-02-03T03:46:28.170Z,101798.78
2023-02-03T03:48:58.561Z,101795.94
2023-02-03T03:51:36.919Z,101792.66
2023-02-03T03:54:09.801Z,101796.13
2023-02-03T03:56:43.731Z,101796.03
2023-02-03T03:59:14.256Z,101795.91
2023-02-03T04:01:41.663Z,101806.31
2023-02-03T04:04:10.816Z,101798.13
2023-02-03T04:06:40.299Z,101799.34
2023-02-03T04:09:06.922Z,101810.22
2023-02-03T04:11:51.825Z,101812.97
2023-02-03T04:14:18.280Z,101817.63
2023-02-03T04:16:44.670Z,101830.47
2023-02-03T04:19:11.090Z,101822.13
2023-02-03T04:21:37.489Z,101826.81
2023-02-03T04:24:04.039Z,101830.38
2023-02-03T04:26:30.438Z,101825.94
2023-02-03T04:28:56.847Z,101826.94
2023-02-03T04:31:23.354Z,101820.94
2023-02-03T04:33:49.816Z,101836.03
2023-02-03T04:36:16.343Z,101828.28
2023-02-03T04:38:42.718Z,101830.66
2023-02-03T04:41:09.195Z,101840.53
2023-02-03T04:43:35.589Z,101837.47
2023-02-03T04:46:02.084Z,101839.13
2023-02-03T04:48:28.581Z,101838.38
2023-02-03T04:51:00.510Z,101841.88
2023-02-03T04:53:26.925Z,101844.81
2023-02-03T04:55:53.333Z,101836.25
2023-02-03T04:58:19.760Z,101819.47
2023-02-03T05:00:46.208Z,101821.00
2023-02-03T05:03:12.745Z,101820.28
2023-02-03T05:05:39.163Z,101820.06
2023-02-03T05:08:05.829Z,101825.94
2023-02-03T05:10:32.508Z,101827.13
2023-02-03T05:12:59.042Z,101825.84
2023-02-03T05:15:25.501Z,101823.53
2023-02-03T05:17:52.950Z,101829.91
2023-02-03T05:20:19.416Z,101819.06
2023-02-03T05:22:45.888Z,101815.47
2023-02-03T05:25:12.567Z,101810.78
2023-02-03T05:27:39.780Z,101821.50
2023-02-03T05:30:08.452Z,101818.19
2023-02-03T05:32:34.930Z,101814.75
2023-02-03T05:35:01.379Z,101814.59
2023-02-03T05:37:27.839Z,101819.66
2023-02-03T05:40:14.209Z,101824.31
2023-02-03T05:42:46.670Z,101824.31
2023-02-03T05:45:13.066Z,101822.72
2023-02-03T05:47:39.498Z,101837.34
2023-02-03T05:50:06.045Z,101837.66
2023-02-03T05:52:32.492Z,101837.16
2023-02-03T05:54:58.927Z,101844.56
2023-02-03T05:57:25.383Z,101863.78
2023-02-03T05:59:51.839Z,101870.47
2023-02-03T06:02:18.283Z,101878.47
2023-02-03T06:04:44.742Z,101880.25
2023-02-03T06:07:11.166Z,101896.97
2023-02-03T06:09:37.576Z,101890.13
2023-02-03T06:12:04.229Z,101894.44
2023-02-03T06:14:30.688Z,101891.97
2023-02-03T06:16:57.217Z,101884.63
2023-02-03T06:19:23.820Z,101879.72
2023-02-03T06:21:50.356Z,101882.19
2023-02-03T06:24:16.767Z,101876.22
2023-02-03T06:26:43.197Z,101879.06
2023-02-03T06:29:11.329Z,101877.19
2023-02-03T06:31:40.452Z,101873.56
2023-02-03T06:34:14.905Z,101875.78
2023-02-03T06:37:24.767Z,101888.44
2023-02-03T06:40:00.860Z,101894.13
2023-02-03T06:42:31.460Z,101897.38
2023-02-03T06:45:05.915Z,101899.59
2023-02-03T06:47:46.813Z,101886.25
2023-02-03T06:50:16.120Z,101874.47
2023-02-03T06:52:49.113Z,101870.09
2023-02-03T06:55:19.238Z,101872.41
2023-02-03T06:57:49.919Z,101862.91
2023-02-03T07:00:21.700Z,101880.25
2023-02-03T07:03:07.164Z,101889.50
2023-02-03T07:05:37.005Z,101902.50
2023-02-03T07:08:03.762Z,101939.84
2023-02-03T07:10:30.615Z,101943.38
2023-02-03T07:13:05.579Z,101956.81
2023-02-03T07:15:32.537Z,101968.78
2023-02-03T07:17:59.376Z,101962.97
2023-02-03T07:20:26.535Z,101964.25
2023-02-03T07:22:55.382Z,101946.47
2023-02-03T07:25:23.080Z,101943.91
2023-02-03T07:27:49.601Z,101950.50
2023-02-03T07:30:23.109Z,101947.56
2023-02-03T07:32:51.489Z,101950.28
2023-02-03T07:35:19.083Z,101951.13
2023-02-03T07:37:49.107Z,101964.41
2023-02-03T07:40:24.430Z,101967.53
2023-02-03T07:42:51.461Z,101973.00
2023-02-03T07:45:19.695Z,101969.94
2023-02-03T07:47:49.437Z,101978.56
2023-02-03T07:50:15.932Z,101982.28
2023-02-03T07:52:42.868Z,101989.31
2023-02-03T07:55:09.745Z,102007.25
2023-02-03T07:57:37.690Z,102001.34
2023-02-03T08:00:08.791Z,102005.56
2023-02-03T08:02:55.710Z,102004.28
2023-02-03T08:05:27.975Z,102014.16
2023-02-03T08:08:12.657Z,102012.66
2023-02-03T08:10:39.761Z,101996.41
2023-02-03T08:13:10.878Z,101985.25
2023-02-03T08:15:40.863Z,101980.19
2023-02-03T08:18:09.744Z,101990.50
2023-02-03T08:20:36.228Z,101989.47
2023-02-03T08:23:02.636Z,101992.84
2023-02-03T08:25:29.066Z,101991.66
2023-02-03T08:27:55.547Z,101972.41
2023-02-03T08:30:22.410Z,101966.38
2023-02-03T08:32:49.257Z,101962.38
2023-02-03T08:35:15.764Z,101976.03
2023-02-03T08:37:42.192Z,101967.28
2023-02-03T08:40:10.355Z,101959.31
2023-02-03T08:42:36.996Z,101951.75
2023-02-03T08:45:05.268Z,101955.81
2023-02-03T08:47:31.837Z,101961.66
2023-02-03T08:49:58.383Z,101969.31
2023-02-03T08:52:24.862Z,101968.38
2023-02-03T08:54:51.314Z,101968.38
2023-02-03T08:57:17.776Z,101976.66
2023-02-03T08:59:44.358Z,101979.28
2023-02-03T09:02:15.678Z,101975.28
2023-02-03T09:04:42.353Z,101982.22
2023-02-03T09:07:08.888Z,101976.28
2023-02-03T09:09:35.388Z,101972.16
2023-02-03T09:12:05.387Z,101985.13
2023-02-03T09:14:33.547Z,101988.06
2023-02-03T09:17:03.176Z,101982.56
2023-02-03T09:19:30.374Z,101984.88
2023-02-03T09:21:59.850Z,101986.97
2023-02-03T09:24:26.789Z,101984.75
2023-02-03T09:26:53.221Z,101984.25
2023-02-03T09:29:20.167Z,101989.66
2023-02-03T09:31:48.654Z,101995.88
2023-02-03T09:34:15.155Z,102005.16
2023-02-03T09:36:43.062Z,102005.94
2023-02-03T09:39:09.651Z,102003.97
2023-02-03T09:42:21.150Z,102004.66
2023-02-03T09:45:02.975Z,102005.75
2023-02-03T09:47:37.208Z,101994.69
2023-02-03T09:50:07.125Z,102000.69
2023-02-03T09:52:39.305Z,101998.72
2023-02-03T09:55:26.727Z,101996.25
2023-02-03T09:58:15.223Z,102001.41
2023-02-03T10:01:07.576Z,102018.38
2023-02-03T10:03:45.550Z,102017.56
2023-02-03T10:06:36.119Z,102019.50
2023-02-03T10:09:31.086Z,102015.59
2023-02-03T10:12:28.697Z,102003.16
2023-02-03T10:15:06.994Z,102011.22
2023-02-03T10:17:41.198Z,102002.41
2023-02-03T10:20:29.950Z,101999.38
2023-02-03T10:23:04.645Z,101988.25
2023-02-03T10:25:59.430Z,101983.69
2023-02-03T10:28:57.291Z,101984.81
2023-02-03T10:31:35.026Z,101974.03
2023-02-03T10:34:23.061Z,101978.06
2023-02-03T10:37:06.347Z,101984.66
2023-02-03T10:39:41.629Z,101994.22
2023-02-03T10:42:11.716Z,101972.63
2023-02-03T10:45:03.472Z,101969.69
2023-02-03T10:47:53.602Z,101958.34
2023-02-03T10:50:27.216Z,101957.28
2023-02-03T10:53:33.681Z,101960.19
2023-02-03T10:56:16.031Z,101953.56
2023-02-03T10:58:53.279Z,101953.38
2023-02-03T11:01:23.632Z,101947.53
2023-02-03T11:04:04.032Z,101941.69
2023-02-03T11:06:32.379Z,101937.47
2023-02-03T11:08:59.669Z,101936.38
2023-02-03T11:11:33.846Z,101931.78
2023-02-03T11:14:03.091Z,101929.03
2023-02-03T11:16:31.973Z,101923.16
2023-02-03T11:19:02.597Z,101926.09
2023-02-03T11:21:39.397Z,101919.63
2023-02-03T11:24:26.704Z,101928.28
2023-02-03T11:27:25.287Z,101909.91
2023-02-03T11:30:14.810Z,101907.38
2023-02-03T11:33:04.545Z,101912.47
2023-02-03T11:35:42.507Z,101912.81
2023-02-03T11:38:29.782Z,101906.88
2023-02-03T11:41:00.003Z,101894.16
2023-02-03T11:43:29.081Z,101884.66
2023-02-03T11:46:02.121Z,101866.28
2023-02-03T11:48:36.086Z,101870.28
2023-02-03T11:51:30.257Z,101871.34
2023-02-03T11:54:36.204Z,101864.50
2023-02-03T11:57:34.680Z,101849.81
2023-02-03T12:00:19.572Z,101845.09
2023-02-03T12:02:59.509Z,101834.81
2023-02-03T12:05:41.606Z,101824.22
2023-02-03T12:08:25.110Z,101818.22
2023-02-03T12:11:00.572Z,101812.84
2023-02-03T12:13:49.633Z,101816.81
2023-02-03T12:16:35.094Z,101800.22
2023-02-03T12:19:44.496Z,101791.88
2023-02-03T12:22:44.815Z,101794.47
2023-02-03T12:25:40.264Z,101794.22
2023-02-03T12:28:51.835Z,101786.56
2023-02-03T12:31:42.840Z,101780.69
2023-02-03T12:34:24.857Z,101768.81
2023-02-03T12:36:58.234Z,101761.13
2023-02-03T12:39:41.407Z,101747.09
2023-02-03T12:42:32.252Z,101744.13
2023-02-03T12:45:05.038Z,101732.47
2023-02-03T12:47:56.917Z,101733.59
2023-02-03T12:50:31.048Z,101726.66
2023-02-03T12:53:15.764Z,101706.41
2023-02-03T12:55:47.881Z,101702.41
2023-02-03T12:58:25.314Z,101701.84
2023-02-03T13:01:03.861Z,101693.38
2023-02-03T13:03:56.843Z,101688.75
2023-02-03T13:06:46.843Z,101686.22
2023-02-03T13:09:21.729Z,101680.06
2023-02-03T13:12:07.081Z,101687.09
2023-02-03T13:14:42.785Z,101673.47
2023-02-03T13:17:28.050Z,101679.22
2023-02-03T13:20:08.385Z,101666.06
2023-02-03T13:22:34.851Z,101662.69
2023-02-03T13:25:36.150Z,101650.97
2023-02-03T13:28:27.295Z,101645.84
2023-02-03T13:30:53.725Z,101647.25
2023-02-03T13:33:44.538Z,101642.09
2023-02-03T13:36:32.081Z,101650.00
2023-02-03T13:39:30.475Z,101650.13
2023-02-03T13:42:23.173Z,101638.38
2023-02-03T13:44:58.634Z,101633.66
2023-02-03T13:47:32.135Z,101629.78
2023-02-03T13:50:07.507Z,101634.16
2023-02-03T13:53:03.122Z,101628.28
2023-02-03T13:55:36.786Z,101616.91
2023-02-03T13:58:08.355Z,101623.84
2023-02-03T14:00:56.774Z,101616.31
2023-02-03T14:03:26.822Z,101610.84
2023-02-03T14:05:55.658Z,101612.09
2023-02-03T14:08:25.022Z,101606.66
2023-02-03T14:11:29.125Z,101602.56
2023-02-03T14:14:15.443Z,101593.06
2023-02-03T14:16:49.512Z,101593.69
2023-02-03T14:19:21.818Z,101579.28
2023-02-03T14:21:53.022Z,101581.41
2023-02-03T14:24:20.641Z,101577.34
2023-02-03T14:26:51.964Z,101578.88
2023-02-03T14:29:24.655Z,101585.25
2023-02-03T14:32:05.144Z,101575.84
2023-02-03T14:34:41.779Z,101578.00
2023-02-03T14:37:14.788Z,101574.50
2023-02-03T14:40:22.028Z,101578.16
2023-02-03T14:43:43.766Z,101568.91
2023-02-03T14:46:40.809Z,101563.31
2023-02-03T14:49:26.560Z,101567.53
2023-02-03T14:52:24.610Z,101568.75
2023-02-03T14:55:12.959Z,101566.06
2023-02-03T14:57:49.655Z,101562.38
2023-02-03T15:00:22.644Z,101563.59
2023-02-03T15:03:15.437Z,101550.59
2023-02-03T15:06:02.194Z,101557.69
2023-02-03T15:08:48.437Z,101551.66
2023-02-03T15:12:23.201Z,101541.19
2023-02-03T15:14:50.791Z,101547.09
2023-02-03T15:17:20.417Z,101543.16
2023-02-03T15:19:50.020Z,101539.66
2023-02-03T15:22:27.455Z,101538.00
2023-02-03T15:24:57.437Z,101534.06
2023-02-03T15:27:27.054Z,101524.19
2023-02-03T15:30:16.024Z,101525.53
2023-02-03T15:32:52.929Z,101527.53
2023-02-03T15:35:20.646Z,101532.50
2023-02-03T15:37:47.185Z,101529.47
2023-02-03T15:40:23.544Z,101534.34
2023-02-03T15:43:09.560Z,101541.00
2023-02-03T15:45:45.838Z,101543.22
2023-02-03T15:48:16.841Z,101538.56
2023-02-03T15:50:56.893Z,101528.69
2023-02-03T15:53:46.865Z,101532.16
2023-02-03T15:56:48.641Z,101540.78
2023-02-03T15:59:27.425Z,101533.00
2023-02-03T16:01:54.299Z,101525.72
2023-02-03T16:04:22.011Z,101520.28
2023-02-03T16:06:50.955Z,101516.44
2023-02-03T16:09:45.259Z,101523.09
2023-02-03T16:12:18.676Z,101522.47
2023-02-03T16:14:46.633Z,101518.84
2023-02-03T16:17:25.350Z,101511.38
2023-02-03T16:20:11.651Z,101509.84
2023-02-03T16:22:38.018Z,101508.88
2023-02-03T16:25:27.581Z,101510.09
2023-02-03T16:28:34.385Z,101515.47
2023-02-03T16:31:33.520Z,101519.94
2023-02-03T16:34:20.558Z,101516.06
2023-02-03T16:37:05.742Z,101522.81
2023-02-03T16:39:50.627Z,101522.63
2023-02-03T16:42:38.896Z,101521.59
2023-02-03T16:45:34.717Z,101518.22
2023-02-03T16:48:21.090Z,101519.53
2023-02-03T16:50:59.339Z,101520.88
2023-02-03T16:53:31.926Z,101525.59
2023-02-03T16:56:01.081Z,101531.09
2023-02-03T16:58:27.956Z,101527.78
2023-02-03T17:00:55.241Z,101527.69
2023-02-03T17:03:24.740Z,101517.19
2023-02-03T17:05:52.335Z,101508.50
2023-02-03T17:08:21.422Z,101516.84
2023-02-03T17:10:48.065Z,101515.28
2023-02-03T17:13:15.765Z,101522.59
2023-02-03T17:15:44.559Z,101520.94
2023-02-03T17:18:11.983Z,101530.94
2023-02-03T17:20:38.485Z,101532.81
2023-02-03T17:23:04.933Z,101523.94
2023-02-03T17:25:33.956Z,101522.88
2023-02-03T17:28:00.433Z,101517.63
2023-02-03T17:30:28.340Z,101509.56
2023-02-03T17:32:56.664Z,101505.38
2023-02-03T17:35:23.964Z,101515.38
2023-02-03T17:37:50.419Z,101506.78
2023-02-03T17:54:06.247Z,101521.69
2023-02-03T17:56:35.376Z,101515.00
2023-02-03T17:59:04.156Z,101522.47
2023-02-03T18:01:31.781Z,101514.13
2023-02-03T18:04:01.240Z,101512.72
2023-02-03T18:06:29.838Z,101523.53
2023-02-03T18:09:01.937Z,101517.34
2023-02-03T18:11:30.467Z,101514.00
2023-02-03T18:13:57.085Z,101503.34
2023-02-03T18:16:26.430Z,101501.56
2023-02-03T18:18:53.761Z,101501.94
2023-02-03T18:21:22.576Z,101487.34
2023-02-03T18:23:51.063Z,101483.25
2023-02-03T18:26:19.649Z,101478.88
2023-02-03T18:28:47.113Z,101480.16
2023-02-03T18:31:17.503Z,101481.75
2023-02-03T18:33:46.120Z,101478.59
2023-02-03T18:36:14.133Z,101473.75
2023-02-03T18:38:42.513Z,101474.09
2023-02-03T18:41:15.508Z,101472.69
2023-02-03T18:43:42.898Z,101457.13
2023-02-03T18:46:11.544Z,101461.19
2023-02-03T18:48:38.011Z,101455.00
2023-02-03T18:51:08.945Z,101462.09
2023-02-03T18:53:36.271Z,101459.03
2023-02-03T18:56:09.302Z,101457.06
2023-02-03T18:58:38.648Z,101461.13
2023-02-03T19:01:05.297Z,101470.31
2023-02-03T19:03:31.839Z,101478.78
2023-02-03T19:05:58.509Z,101469.41
2023-02-03T19:08:25.183Z,101483.41
2023-02-03T19:10:55.289Z,101489.47
2023-02-03T19:13:21.831Z,101501.72
2023-02-03T19:15:48.953Z,101498.53
2023-02-03T19:18:16.081Z,101498.84
2023-02-03T19:20:43.599Z,101506.41
2023-02-03T19:23:12.313Z,101498.09
2023-02-03T19:25:39.269Z,101493.47
2023-02-03T19:28:06.858Z,101484.03
2023-02-03T19:30:36.266Z,101482.59
2023-02-03T19:33:02.926Z,101484.06
2023-02-03T19:35:29.443Z,101482.22
2023-02-03T19:37:55.843Z,101482.69
2023-02-03T19:40:22.313Z,101486.28
2023-02-03T19:42:49.986Z,101473.28
2023-02-03T19:45:16.540Z,101472.16
2023-02-03T19:47:43.109Z,101468.38
2023-02-03T19:50:09.979Z,101460.16
2023-02-03T19:52:36.467Z,101459.47
2023-02-03T19:55:03.513Z,101452.34
2023-02-03T19:57:29.895Z,101446.69
2023-02-03T19:59:56.706Z,101441.44
2023-02-03T20:02:23.251Z,101437.97
2023-02-03T20:04:50.303Z,101436.28
2023-02-03T20:07:16.880Z,101435.00
2023-02-03T20:09:43.342Z,101426.25
2023-02-03T20:12:09.870Z,101428.81
2023-02-03T20:14:36.273Z,101420.59
2023-02-03T20:17:04.860Z,101414.91
2023-02-03T20:19:31.322Z,101424.03
2023-02-03T20:21:57.835Z,101420.34
2023-02-03T20:24:24.926Z,101424.78
2023-02-03T20:26:51.409Z,101431.34
2023-02-03T20:29:17.865Z,101427.88
2023-02-03T20:31:44.332Z,101408.53
2023-02-03T20:34:11.188Z,101409.44
2023-02-03T20:36:38.315Z,101401.59
2023-02-03T20:39:05.005Z,101392.28
2023-02-03T20:41:31.456Z,101380.06
2023-02-03T20:43:57.935Z,101387.22
2023-02-03T20:46:24.353Z,101390.69
2023-02-03T20:48:50.762Z,101399.63
2023-02-03T20:51:18.659Z,101389.75
2023-02-03T20:53:45.075Z,101374.66
2023-02-03T20:56:17.166Z,101374.28
2023-02-03T20:58:44.792Z,101375.56
2023-02-03T21:01:20.285Z,101365.00
2023-02-03T21:04:05.567Z,101359.53
2023-02-03T21:06:33.889Z,101343.28
2023-02-03T21:09:20.793Z,101343.09
2023-02-03T21:11:47.192Z,101354.22
2023-02-03T21:14:44.002Z,101336.69
2023-02-03T21:17:25.645Z,101338.28
2023-02-03T21:19:52.860Z,101335.00
2023-02-03T21:22:27.758Z,101347.78
2023-02-03T21:24:59.852Z,101343.41
2023-02-03T21:27:29.252Z,101341.28
2023-02-03T21:29:57.722Z,101345.50
2023-02-03T21:32:38.395Z,101347.50
2023-02-03T21:35:26.068Z,101344.19
2023-02-03T21:37:56.901Z,101347.75
2023-02-03T21:40:26.704Z,101342.25
2023-02-03T21:42:54.242Z,101338.63
2023-02-03T21:45:28.471Z,101337.25
2023-02-03T21:47:57.498Z,101339.09
2023-02-03T21:50:28.303Z,101333.81
2023-02-03T21:52:54.961Z,101338.22
2023-02-03T21:55:21.367Z,101332.56
2023-02-03T21:57:48.327Z,101336.94
2023-02-03T22:00:42.939Z,101331.09
2023-02-03T22:03:20.199Z,101330.38
2023-02-03T22:05:47.583Z,101318.16
2023-02-03T22:08:21.525Z,101323.06
2023-02-03T22:10:48.521Z,101321.03
2023-02-03T22:13:15.745Z,101321.41
2023-02-03T22:15:43.278Z,101319.03
2023-02-03T22:18:10.300Z,101325.00
2023-02-03T22:20:36.738Z,101327.00
2023-02-03T22:23:03.365Z,101323.00
2023-02-03T22:25:29.808Z,101328.84
2023-02-03T22:27:56.240Z,101324.28
2023-02-03T22:30:22.748Z,101324.97
2023-02-03T22:32:49.186Z,101316.25
2023-02-03T22:35:15.698Z,101314.97
2023-02-03T22:37:42.116Z,101307.16
2023-02-03T22:40:10.079Z,101307.19
2023-02-03T22:42:36.545Z,101308.47
2023-02-03T22:45:03.101Z,101308.69
2023-02-03T22:47:29.508Z,101311.94
2023-02-03T22:49:56.033Z,101303.03
2023-02-03T22:52:23.479Z,101302.66
2023-02-03T22:54:49.885Z,101313.63
2023-02-03T22:57:16.261Z,101319.78
2023-02-03T22:59:42.663Z,101314.34
2023-02-03T23:02:09.063Z,101313.78
2023-02-03T23:04:35.610Z,101307.03
2023-02-03T23:07:02.042Z,101313.25
2023-02-03T23:09:28.722Z,101308.31
2023-02-03T23:11:55.125Z,101307.03
2023-02-03T23:14:21.600Z,101307.94
2023-02-03T23:16:48.071Z,101312.50
2023-02-03T23:19:15.499Z,101307.03
2023-02-03T23:21:42.007Z,101306.84
2023-02-03T23:24:08.513Z,101306.13
2023-02-03T23:26:34.927Z,101305.59
2023-02-03T23:29:01.758Z,101305.03
2023-02-03T23:31:28.286Z,101300.13
2023-02-03T23:34:13.346Z,101295.94
2023-02-03T23:36:39.851Z,101301.94
2023-02-03T23:39:06.604Z,101306.31
2023-02-03T23:41:33.074Z,101292.09
2023-02-03T23:44:00.846Z,101303.03
2023-02-03T23:46:27.349Z,101292.28
2023-02-03T23:48:53.760Z,101292.81
2023-02-03T23:51:20.160Z,101293.72
2023-02-03T23:53:46.578Z,101288.78
2023-02-03T23:56:13.750Z,101284.41
2023-02-03T23:58:40.207Z,101292.03
